QTR1039 OMSJ-OTHH
Flight info
| Callsign | QTR1039 |
|---|---|
| Flight time | N/A |
| Altitude | 25000 |
| Route | ANVIX DCT GIDIS/N0481F260 DCT ALA DCT ELUDA DCT UKRAG DCT RIGIL DCT PEKEM DCT CHLY3/N0473F250 DCT LAEEB |
| Aircraft | B77L/H-SDE1E2E3FGHIJ2J3J4J5M1RWXY/LB1D1 |
Departure
| Time | 2026-04-24 07:04 |
|---|---|
| Airport | Sharjah International Airport (OMSJ) |
Arrival
| Time | N/A |
|---|---|
| Airport | Hamad International Airport (OTHH) |
| Time | Latitude | Longitude | Altitude | Speed | Heading |
|---|---|---|---|---|---|
| 2026-04-24 06:38 | 25.32530 | 55.51094 | 120 ft | 0 kts | 122° |
| 2026-04-24 06:47 | 25.32537 | 55.51082 | 120 ft | 4 kts | 125° |
| 2026-04-24 06:47 | 25.32553 | 55.51058 | 126 ft | 4 kts | 120° |
| 2026-04-24 06:47 | 25.32560 | 55.51033 | 119 ft | 2 kts | 83° |
| 2026-04-24 06:48 | 25.32554 | 55.51009 | 120 ft | 4 kts | 42° |
| 2026-04-24 06:48 | 25.32531 | 55.50994 | 116 ft | 4 kts | 27° |
| 2026-04-24 06:48 | 25.32523 | 55.50989 | 116 ft | 2 kts | 32° |
| 2026-04-24 06:53 | 25.32534 | 55.50997 | 115 ft | 3 kts | 32° |
| 2026-04-24 06:53 | 25.32564 | 55.51018 | 119 ft | 6 kts | 32° |
| 2026-04-24 06:54 | 25.32610 | 55.51050 | 120 ft | 9 kts | 32° |
| 2026-04-24 06:54 | 25.32658 | 55.51084 | 116 ft | 4 kts | 32° |
| 2026-04-24 06:54 | 25.32665 | 55.51089 | 120 ft | 2 kts | 32° |
| 2026-04-24 06:54 | 25.32688 | 55.51106 | 120 ft | 5 kts | 34° |
| 2026-04-24 06:55 | 25.32728 | 55.51134 | 117 ft | 8 kts | 32° |
| 2026-04-24 06:55 | 25.32783 | 55.51171 | 117 ft | 7 kts | 31° |
| 2026-04-24 06:55 | 25.32792 | 55.51177 | 121 ft | 2 kts | 31° |
| 2026-04-24 06:55 | 25.32814 | 55.51192 | 116 ft | 5 kts | 31° |
| 2026-04-24 06:56 | 25.32854 | 55.51219 | 117 ft | 8 kts | 31° |
| 2026-04-24 06:56 | 25.32880 | 55.51238 | 123 ft | 0 kts | 34° |
| 2026-04-24 06:56 | 25.32893 | 55.51248 | 120 ft | 4 kts | 35° |
| 2026-04-24 06:57 | 25.32923 | 55.51270 | 119 ft | 7 kts | 33° |
| 2026-04-24 06:57 | 25.32969 | 55.51302 | 119 ft | 9 kts | 32° |
| 2026-04-24 06:57 | 25.33030 | 55.51345 | 116 ft | 11 kts | 41° |
| 2026-04-24 06:57 | 25.33026 | 55.51430 | 116 ft | 13 kts | 119° |
| 2026-04-24 06:58 | 25.32974 | 55.51523 | 116 ft | 15 kts | 121° |
| 2026-04-24 06:58 | 25.32914 | 55.51628 | 116 ft | 17 kts | 122° |
| 2026-04-24 06:58 | 25.32845 | 55.51747 | 116 ft | 20 kts | 122° |
| 2026-04-24 06:58 | 25.32772 | 55.51875 | 116 ft | 17 kts | 122° |
| 2026-04-24 06:59 | 25.32718 | 55.51968 | 117 ft | 14 kts | 122° |
| 2026-04-24 06:59 | 25.32660 | 55.52072 | 117 ft | 17 kts | 121° |
| 2026-04-24 06:59 | 25.32595 | 55.52184 | 116 ft | 16 kts | 123° |
| 2026-04-24 06:59 | 25.32540 | 55.52278 | 118 ft | 14 kts | 123° |
| 2026-04-24 07:00 | 25.32483 | 55.52378 | 116 ft | 17 kts | 122° |
| 2026-04-24 07:00 | 25.32417 | 55.52493 | 117 ft | 19 kts | 122° |
| 2026-04-24 07:00 | 25.32358 | 55.52597 | 119 ft | 15 kts | 122° |
| 2026-04-24 07:00 | 25.32298 | 55.52702 | 116 ft | 18 kts | 122° |
| 2026-04-24 07:01 | 25.32228 | 55.52823 | 118 ft | 20 kts | 122° |
| 2026-04-24 07:01 | 25.32151 | 55.52958 | 116 ft | 22 kts | 122° |
| 2026-04-24 07:01 | 25.32077 | 55.53088 | 115 ft | 15 kts | 122° |
| 2026-04-24 07:01 | 25.32028 | 55.53173 | 116 ft | 14 kts | 123° |
| 2026-04-24 07:02 | 25.31972 | 55.53269 | 116 ft | 15 kts | 122° |
| 2026-04-24 07:02 | 25.31990 | 55.53354 | 116 ft | 10 kts | 37° |
| 2026-04-24 07:02 | 25.32030 | 55.53381 | 120 ft | 4 kts | 31° |
| 2026-04-24 07:02 | 25.32055 | 55.53398 | 118 ft | 5 kts | 31° |
| 2026-04-24 07:03 | 25.32088 | 55.53417 | 120 ft | 6 kts | 21° |
| 2026-04-24 07:03 | 25.32135 | 55.53416 | 119 ft | 8 kts | 345° |
| 2026-04-24 07:03 | 25.32179 | 55.53371 | 118 ft | 10 kts | 301° |
| 2026-04-24 07:03 | 25.32265 | 55.53217 | 120 ft | 53 kts | 301° |
| 2026-04-24 07:04 | 25.32667 | 55.52519 | 121 ft | 160 kts | 302° |
| 2026-04-24 07:04 | 25.33375 | 55.51306 | 622 ft | 198 kts | 303° |
| 2026-04-24 07:04 | 25.34094 | 55.50034 | 1983 ft | 194 kts | 302° |
| 2026-04-24 07:04 | 25.34771 | 55.48743 | 3195 ft | 196 kts | 300° |
| 2026-04-24 07:05 | 25.35535 | 55.47310 | 3455 ft | 247 kts | 304° |
| 2026-04-24 07:05 | 25.36470 | 55.45750 | 4841 ft | 238 kts | 304° |
| 2026-04-24 07:05 | 25.37373 | 55.44221 | 6147 ft | 238 kts | 303° |
| 2026-04-24 07:05 | 25.37971 | 55.43197 | 6929 ft | 241 kts | 302° |
| 2026-04-24 07:06 | 25.39053 | 55.41756 | 7919 ft | 250 kts | 323° |
| 2026-04-24 07:06 | 25.40675 | 55.41065 | 9087 ft | 255 kts | 353° |
| 2026-04-24 07:06 | 25.42431 | 55.41381 | 10259 ft | 263 kts | 22° |
| 2026-04-24 07:06 | 25.44041 | 55.42429 | 11230 ft | 275 kts | 30° |
| 2026-04-24 07:07 | 25.45669 | 55.43595 | 12417 ft | 281 kts | 30° |
| 2026-04-24 07:07 | 25.47330 | 55.44776 | 13745 ft | 285 kts | 30° |
| 2026-04-24 07:07 | 25.50700 | 55.47190 | 16210 ft | 294 kts | 37° |
| 2026-04-24 07:08 | 25.51656 | 55.48329 | 16885 ft | 304 kts | 57° |
| 2026-04-24 07:08 | 25.52085 | 55.49257 | 17360 ft | 308 kts | 70° |
| 2026-04-24 07:09 | 25.52376 | 55.51626 | 18273 ft | 323 kts | 97° |
| 2026-04-24 07:09 | 25.51638 | 55.54012 | 18857 ft | 341 kts | 123° |
| 2026-04-24 07:09 | 25.50292 | 55.56277 | 19739 ft | 354 kts | 127° |
| 2026-04-24 07:09 | 25.48909 | 55.58522 | 20793 ft | 362 kts | 126° |
| 2026-04-24 07:10 | 25.47500 | 55.60856 | 21939 ft | 367 kts | 126° |
| 2026-04-24 07:10 | 25.46104 | 55.63245 | 23037 ft | 374 kts | 125° |
| 2026-04-24 07:10 | 25.44696 | 55.65701 | 24042 ft | 382 kts | 125° |
| 2026-04-24 07:10 | 25.43264 | 55.68210 | 24733 ft | 388 kts | 125° |
| 2026-04-24 07:11 | 25.41680 | 55.70629 | 24904 ft | 387 kts | 139° |
| 2026-04-24 07:11 | 25.39467 | 55.72220 | 24920 ft | 378 kts | 165° |
| 2026-04-24 07:11 | 25.36927 | 55.72602 | 24924 ft | 365 kts | 190° |
| 2026-04-24 07:11 | 25.34550 | 55.71816 | 24930 ft | 356 kts | 208° |
| 2026-04-24 07:12 | 25.32371 | 55.70530 | 24907 ft | 354 kts | 214° |
| 2026-04-24 07:12 | 25.30328 | 55.69020 | 24922 ft | 353 kts | 218° |
| 2026-04-24 07:12 | 25.28331 | 55.67459 | 24899 ft | 350 kts | 214° |
| 2026-04-24 07:12 | 25.26060 | 55.66448 | 24914 ft | 359 kts | 195° |
| 2026-04-24 07:13 | 25.23460 | 55.66273 | 24918 ft | 394 kts | 178° |
| 2026-04-24 07:13 | 25.20651 | 55.66762 | 24943 ft | 422 kts | 173° |
| 2026-04-24 07:13 | 25.17679 | 55.67317 | 24951 ft | 445 kts | 174° |
| 2026-04-24 07:13 | 25.14541 | 55.67844 | 24941 ft | 465 kts | 176° |
| 2026-04-24 07:14 | 25.11268 | 55.68206 | 24942 ft | 482 kts | 178° |
| 2026-04-24 07:14 | 25.07878 | 55.68489 | 24924 ft | 494 kts | 178° |
| 2026-04-24 07:14 | 25.04429 | 55.68798 | 24917 ft | 497 kts | 178° |
| 2026-04-24 07:14 | 25.00997 | 55.69144 | 24906 ft | 496 kts | 177° |
| 2026-04-24 07:15 | 24.97594 | 55.69663 | 24900 ft | 496 kts | 169° |
| 2026-04-24 07:15 | 24.94369 | 55.71128 | 24903 ft | 508 kts | 152° |
| 2026-04-24 07:15 | 24.91584 | 55.73533 | 24903 ft | 513 kts | 136° |
| 2026-04-24 07:15 | 24.89443 | 55.76655 | 24922 ft | 511 kts | 125° |
| 2026-04-24 07:16 | 24.87470 | 55.79932 | 24905 ft | 513 kts | 126° |
| 2026-04-24 07:16 | 24.85410 | 55.83140 | 24908 ft | 514 kts | 128° |
| 2026-04-24 07:16 | 24.83288 | 55.86315 | 24914 ft | 515 kts | 128° |
| 2026-04-24 07:16 | 24.81061 | 55.89371 | 24903 ft | 509 kts | 136° |
| 2026-04-24 07:17 | 24.78267 | 55.91742 | 24905 ft | 507 kts | 153° |
| 2026-04-24 07:17 | 24.75021 | 55.93205 | 24922 ft | 504 kts | 167° |
| 2026-04-24 07:17 | 24.71588 | 55.93827 | 24901 ft | 499 kts | 181° |
| 2026-04-24 07:17 | 24.68133 | 55.93661 | 24921 ft | 496 kts | 186° |
| 2026-04-24 07:18 | 24.64691 | 55.93387 | 24908 ft | 493 kts | 188° |
| 2026-04-24 07:18 | 24.61359 | 55.92600 | 24900 ft | 490 kts | 201° |
| 2026-04-24 07:18 | 24.58254 | 55.91106 | 24895 ft | 487 kts | 211° |
| 2026-04-24 07:18 | 24.55467 | 55.89021 | 24906 ft | 481 kts | 223° |
| 2026-04-24 07:19 | 24.53030 | 55.86521 | 24925 ft | 480 kts | 225° |
| 2026-04-24 07:19 | 24.50603 | 55.83989 | 24917 ft | 483 kts | 225° |
| 2026-04-24 07:19 | 24.48150 | 55.81463 | 24914 ft | 484 kts | 225° |
| 2026-04-24 07:19 | 24.45678 | 55.78953 | 24925 ft | 484 kts | 224° |
| 2026-04-24 07:20 | 24.43196 | 55.76461 | 24927 ft | 484 kts | 224° |
| 2026-04-24 07:20 | 24.40703 | 55.73972 | 24926 ft | 484 kts | 224° |
| 2026-04-24 07:20 | 24.38210 | 55.71487 | 24932 ft | 483 kts | 224° |
| 2026-04-24 07:20 | 24.35722 | 55.69005 | 24938 ft | 483 kts | 224° |
| 2026-04-24 07:21 | 24.33242 | 55.66531 | 24936 ft | 483 kts | 224° |
| 2026-04-24 07:21 | 24.30681 | 55.64139 | 24927 ft | 484 kts | 219° |
| 2026-04-24 07:21 | 24.27834 | 55.62155 | 24931 ft | 487 kts | 211° |
| 2026-04-24 07:21 | 24.24777 | 55.60545 | 24939 ft | 489 kts | 205° |
| 2026-04-24 07:22 | 24.21555 | 55.59338 | 24935 ft | 491 kts | 198° |
| 2026-04-24 07:22 | 24.18250 | 55.58375 | 24937 ft | 492 kts | 197° |
| 2026-04-24 07:22 | 24.14939 | 55.57424 | 24938 ft | 492 kts | 197° |
| 2026-04-24 07:22 | 24.11633 | 55.56463 | 24936 ft | 492 kts | 197° |
| 2026-04-24 07:23 | 24.10555 | 55.56146 | 24935 ft | 492 kts | 197° |
| 2026-04-24 07:23 | 24.08018 | 55.55392 | 24939 ft | 492 kts | 198° |
| 2026-04-24 07:24 | 24.04717 | 55.54401 | 24935 ft | 492 kts | 198° |
| 2026-04-24 07:24 | 24.01420 | 55.53403 | 24933 ft | 492 kts | 198° |
| 2026-04-24 07:24 | 23.98117 | 55.52402 | 24934 ft | 492 kts | 198° |
| 2026-04-24 07:24 | 23.94816 | 55.51404 | 24932 ft | 492 kts | 198° |
| 2026-04-24 07:25 | 23.91520 | 55.50407 | 24934 ft | 493 kts | 198° |
| 2026-04-24 07:25 | 23.88213 | 55.49408 | 24936 ft | 493 kts | 198° |
| 2026-04-24 07:25 | 23.84901 | 55.48410 | 24936 ft | 493 kts | 198° |
| 2026-04-24 07:25 | 23.81591 | 55.47419 | 24934 ft | 494 kts | 197° |
| 2026-04-24 07:26 | 23.78277 | 55.46431 | 24928 ft | 494 kts | 197° |
| 2026-04-24 07:26 | 23.74958 | 55.45445 | 24925 ft | 494 kts | 197° |
| 2026-04-24 07:26 | 23.71644 | 55.44461 | 24925 ft | 494 kts | 197° |
| 2026-04-24 07:26 | 23.68331 | 55.43476 | 24926 ft | 494 kts | 197° |
| 2026-04-24 07:27 | 23.65016 | 55.42489 | 24927 ft | 493 kts | 197° |
| 2026-04-24 07:27 | 23.61703 | 55.41503 | 24926 ft | 493 kts | 197° |
| 2026-04-24 07:27 | 23.58391 | 55.40518 | 24926 ft | 493 kts | 197° |
| 2026-04-24 07:27 | 23.55083 | 55.39535 | 24926 ft | 493 kts | 197° |
| 2026-04-24 07:28 | 23.51768 | 55.38551 | 24927 ft | 493 kts | 197° |
| 2026-04-24 07:28 | 23.48456 | 55.37571 | 24926 ft | 493 kts | 197° |
| 2026-04-24 07:28 | 23.45146 | 55.36597 | 24925 ft | 493 kts | 197° |
| 2026-04-24 07:28 | 23.41825 | 55.35621 | 24926 ft | 493 kts | 197° |
| 2026-04-24 07:29 | 23.38512 | 55.34648 | 24923 ft | 494 kts | 197° |
| 2026-04-24 07:29 | 23.35195 | 55.33673 | 24920 ft | 494 kts | 197° |
| 2026-04-24 07:29 | 23.31877 | 55.32698 | 24916 ft | 494 kts | 197° |
| 2026-04-24 07:29 | 23.28557 | 55.31723 | 24909 ft | 494 kts | 197° |
| 2026-04-24 07:30 | 23.25231 | 55.30746 | 24917 ft | 494 kts | 197° |
| 2026-04-24 07:30 | 23.21911 | 55.29772 | 24918 ft | 494 kts | 197° |
| 2026-04-24 07:30 | 23.18588 | 55.28797 | 24919 ft | 494 kts | 197° |
| 2026-04-24 07:30 | 23.15269 | 55.27823 | 24920 ft | 494 kts | 197° |
| 2026-04-24 07:31 | 23.11985 | 55.26860 | 24909 ft | 494 kts | 197° |
| 2026-04-24 07:31 | 23.08702 | 55.25801 | 24909 ft | 487 kts | 203° |
| 2026-04-24 07:31 | 23.05771 | 55.23976 | 24908 ft | 486 kts | 220° |
| 2026-04-24 07:31 | 23.03494 | 55.21325 | 24930 ft | 485 kts | 235° |
| 2026-04-24 07:32 | 23.01804 | 55.18164 | 24916 ft | 484 kts | 247° |
| 2026-04-24 07:32 | 23.00808 | 55.14679 | 24914 ft | 479 kts | 258° |
| 2026-04-24 07:32 | 23.00154 | 55.11117 | 24930 ft | 481 kts | 259° |
| 2026-04-24 07:32 | 22.99517 | 55.07550 | 24924 ft | 483 kts | 259° |
| 2026-04-24 07:33 | 22.98868 | 55.03970 | 24919 ft | 483 kts | 259° |
| 2026-04-24 07:33 | 22.98201 | 55.00393 | 24918 ft | 483 kts | 259° |
| 2026-04-24 07:33 | 22.97519 | 54.96830 | 24916 ft | 483 kts | 258° |
| 2026-04-24 07:33 | 22.96825 | 54.93271 | 24917 ft | 482 kts | 258° |